Time;durP1;ratioP1;P1;durP2;ratioP2;P2;SDS_P1;SDS_P2;PMS_P1;PMS_P2;Temp;Humidity;BMP_temperature;BMP_pressure;BME280_temperature;BME280_humidity;BME280_pressure;Samples;Min_cycle;Max_cycle;Signal;HPM_P1;HPM_P2
2022/09/23 05:58:28;;;;;;;6.92;3.83;;;;;;;10.64;100.00;99895.72;1704226;82;21537;-42
2022/09/23 06:00:55;;;;;;;5.90;3.70;;;;;;;10.60;100.00;99896.60;1704406;82;21088;-43
2022/09/23 06:03:23;;;;;;;4.30;3.90;;;;;;;10.54;100.00;99897.95;1707564;82;20966;-37
2022/09/23 06:05:55;;;;;;;5.40;3.70;;;;;;;10.50;100.00;99895.39;1705151;84;21570;-37
2022/09/23 06:08:22;;;;;;;;;;;;;;;10.51;100.00;99901.05;1707030;82;20977;-38
2022/09/23 06:10:50;;;;;;;5.35;4.10;;;;;;;10.51;100.00;99899.30;1706563;82;20105;-44
2022/09/23 06:13:16;;;;;;;5.65;3.77;;;;;;;10.48;100.00;99903.22;1707137;82;21343;-43
2022/09/23 06:15:44;;;;;;;4.50;3.58;;;;;;;10.44;100.00;99899.35;1701038;82;21189;-42
2022/09/23 06:18:11;;;;;;;4.80;3.90;;;;;;;10.42;100.00;99897.16;1682305;82;21456;-43
2022/09/23 06:20:39;;;;;;;4.37;3.40;;;;;;;10.37;100.00;99900.66;1712475;82;21096;-43
2022/09/23 06:23:13;;;;;;;4.58;3.67;;;;;;;10.34;100.00;99905.05;1709023;82;21060;-41
2022/09/23 06:25:49;;;;;;;6.97;3.65;;;;;;;10.30;100.00;99903.33;1664868;82;21469;-37
2022/09/23 06:28:16;;;;;;;5.25;4.10;;;;;;;10.25;100.00;99902.03;1699313;82;21437;-37
2022/09/23 06:31:07;;;;;;;4.55;3.50;;;;;;;10.25;100.00;99901.17;1702428;82;21072;-43
2022/09/23 06:33:45;;;;;;;3.98;3.45;;;;;;;10.25;100.00;99896.80;1703927;82;21002;-43
2022/09/23 06:36:17;;;;;;;5.20;3.87;;;;;;;10.28;100.00;99892.88;1700694;82;21075;-37
2022/09/23 06:38:50;;;;;;;7.90;3.77;;;;;;;10.35;100.00;99893.27;1698644;83;21947;-36
2022/09/23 06:41:23;;;;;;;5.03;3.47;;;;;;;10.41;100.00;99892.38;1701947;82;21060;-41
2022/09/23 06:43:51;;;;;;;4.92;3.70;;;;;;;10.48;100.00;99884.91;1706076;82;20969;-36
2022/09/23 06:46:19;;;;;;;3.52;3.12;;;;;;;10.52;100.00;99893.18;1702720;82;21337;-36
2022/09/23 06:48:47;;;;;;;3.83;3.37;;;;;;;10.55;100.00;99893.59;1703374;82;21543;-37
2022/09/23 06:51:18;;;;;;;4.08;2.90;;;;;;;10.58;100.00;99889.66;1671159;84;21046;-36
2022/09/23 06:53:43;;;;;;;4.92;3.40;;;;;;;10.65;100.00;99891.34;1641396;85;21010;-36
2022/09/23 06:56:10;;;;;;;3.47;3.17;;;;;;;10.77;100.00;99899.11;1668729;84;21074;-38
2022/09/23 06:58:38;;;;;;;3.95;3.52;;;;;;;10.86;100.00;99896.44;1700019;82;21602;-43
2022/09/23 07:01:10;;;;;;;3.25;2.95;;;;;;;10.89;99.96;99894.22;1698684;82;21095;-37
2022/09/23 07:03:38;;;;;;;2.90;2.70;;;;;;;10.90;99.24;99894.23;1702106;82;21052;-36
2022/09/23 07:06:06;;;;;;;2.77;2.58;;;;;;;10.96;100.00;99895.94;1703587;82;21451;-43
2022/09/23 07:08:36;;;;;;;2.52;2.33;;;;;;;11.07;99.98;99898.44;1702237;82;20976;-35
2022/09/23 07:11:05;;;;;;;3.80;2.75;;;;;;;11.16;99.62;99893.14;1701939;82;21632;-35
2022/09/23 07:13:35;;;;;;;2.98;2.72;;;;;;;11.28;99.79;99889.55;1673758;84;21018;-36
2022/09/23 07:16:04;;;;;;;3.08;2.60;;;;;;;11.39;98.65;99895.11;1648084;85;21073;-36
2022/09/23 07:18:35;;;;;;;3.80;2.85;;;;;;;11.47;97.79;99897.64;1603836;86;21081;-35
2022/09/23 07:21:10;;;;;;;;;;;;;;;11.53;96.40;99896.27;1649745;85;21093;-36
2022/09/23 07:23:43;;;;;;;2.50;2.27;;;;;;;11.58;96.41;99895.78;1644944;85;20112;-36
2022/09/23 07:26:12;;;;;;;2.90;2.55;;;;;;;11.62;95.39;99887.45;1643537;85;21195;-36
2022/09/23 07:28:47;;;;;;;5.25;2.72;;;;;;;11.68;95.67;99886.08;1666295;84;21954;-43
2022/09/23 07:31:17;;;;;;;3.92;3.12;;;;;;;11.76;95.65;99885.98;1664204;82;21048;-37
2022/09/23 07:33:44;;;;;;;3.92;2.52;;;;;;;11.84;95.26;99885.06;1704604;82;20929;-37
2022/09/23 07:36:17;;;;;;;2.62;2.40;;;;;;;11.89;95.16;99887.19;1704803;82;21626;-37
2022/09/23 07:38:44;;;;;;;2.98;2.27;;;;;;;11.91;91.76;99889.78;1699731;82;21377;-36
2022/09/23 07:41:15;;;;;;;2.27;1.95;;;;;;;11.86;90.28;99889.83;1705502;82;20981;-37
2022/09/23 07:43:42;;;;;;;3.67;2.45;;;;;;;11.82;90.31;99886.81;1669123;84;21037;-37
2022/09/23 07:46:13;;;;;;;2.40;2.20;;;;;;;11.83;90.67;99889.89;1653159;85;20990;-37
2022/09/23 07:48:41;;;;;;;2.20;2.00;;;;;;;11.87;90.44;99894.19;1705156;82;21037;-37
2022/09/23 07:51:24;;;;;;;3.92;2.30;;;;;;;11.93;90.57;99887.55;1703839;82;20985;-37
2022/09/23 07:53:51;;;;;;;2.33;1.98;;;;;;;12.01;90.50;99884.87;1703855;82;21043;-43
2022/09/23 07:56:19;;;;;;;2.42;1.85;;;;;;;12.07;89.59;99887.41;1703977;82;21500;-43
2022/09/23 07:58:58;;;;;;;2.72;2.02;;;;;;;12.07;87.41;99884.78;1707713;82;21433;-43
2022/09/23 08:01:15;;;;;;;2.50;2.30;;;;;;;12.06;87.32;99882.16;1698067;82;20977;-43
2022/09/23 08:03:45;;;;;;;2.12;1.92;;;;;;;12.06;87.34;99884.78;1704728;82;21599;-43
2022/09/23 08:06:12;;;;;;;2.45;2.25;;;;;;;12.06;87.25;99888.72;1701393;82;21185;-42
2022/09/23 08:08:42;;;;;;;1.82;1.72;;;;;;;12.05;87.61;99879.98;1698689;82;21748;-42
2022/09/23 08:11:12;;;;;;;1.90;1.80;;;;;;;12.09;86.61;99881.69;1697958;82;21070;-36
2022/09/23 08:13:38;;;;;;;3.85;2.20;;;;;;;12.15;86.36;99880.30;1666087;83;21035;-36
2022/09/23 08:16:05;;;;;;;1.98;1.87;;;;;;;12.24;85.60;99877.57;1654648;84;21525;-35
2022/09/23 08:18:33;;;;;;;2.62;1.98;;;;;;;12.30;85.49;99869.20;1658616;84;21049;-44
2022/09/23 08:20:59;;;;;;;2.77;2.27;;;;;;;12.38;85.48;99865.56;1636858;85;21101;-36
2022/09/23 08:23:32;;;;;;;1.60;1.50;;;;;;;12.47;84.76;99862.82;1695942;82;21026;-43
2022/09/23 08:26:01;;;;;;;1.92;1.72;;;;;;;12.57;84.56;99863.53;1696461;82;21068;-36
2022/09/23 08:28:36;;;;;;;2.15;1.80;;;;;;;12.72;83.45;99857.20;1695278;82;21567;-37
2022/09/23 08:31:03;;;;;;;2.15;1.72;;;;;;;12.76;81.00;99854.50;1697295;82;21505;-43
2022/09/23 08:33:32;;;;;;;2.17;1.57;;;;;;;12.77;80.37;99852.30;1696580;82;21035;-43
2022/09/23 08:36:03;;;;;;;2.30;2.10;;;;;;;12.81;80.58;99846.98;1700257;82;21123;-36
2022/09/23 08:38:34;;;;;;;1.62;1.52;;;;;;;12.83;79.63;99850.47;1700862;82;21077;-35
2022/09/23 08:41:21;;;;;;;2.58;1.92;;;;;;;12.83;78.76;99849.16;1698272;82;21082;-43
2022/09/23 08:43:52;;;;;;;1.45;1.35;;;;;;;12.83;78.66;99849.16;1687499;83;21402;-36
2022/09/23 08:46:30;;;;;;;1.42;1.32;;;;;;;12.90;78.31;99844.22;1685146;84;21575;-36
2022/09/23 08:49:06;;;;;;;1.30;1.20;;;;;;;12.99;76.90;99850.64;1646179;83;21049;-42
2022/09/23 08:51:37;;;;;;;1.65;1.55;;;;;;;13.03;75.95;99847.05;1689660;83;21723;-36
2022/09/23 08:54:07;;;;;;;3.27;1.62;;;;;;;13.06;75.97;99849.64;1689848;83;21044;-36
2022/09/23 08:56:35;;;;;;;2.12;1.95;;;;;;;13.02;76.26;99848.81;1684095;83;21084;-36
2022/09/23 08:59:15;;;;;;;3.75;3.20;;;;;;;12.97;76.11;99849.33;1689983;82;21045;-36
2022/09/23 09:01:56;;;;;;;3.85;3.05;;;;;;;12.93;76.01;99846.78;1689676;83;21053;-43
2022/09/23 09:04:34;;;;;;;3.62;1.85;;;;;;;12.90;75.62;99844.22;1688420;82;21053;-36
2022/09/23 09:07:21;;;;;;;1.98;1.80;;;;;;;12.87;75.93;99845.56;1691922;83;21086;-43
2022/09/23 09:10:11;;;;;;;1.90;1.60;;;;;;;12.84;76.26;99841.70;1692368;82;21426;-43
2022/09/23 09:13:11;;;;;;;2.02;1.92;;;;;;;12.77;77.11;99845.73;1615791;87;21645;-37
2022/09/23 09:15:49;;;;;;;1.70;1.60;;;;;;;12.73;77.35;99848.42;1594762;88;21735;-45
2022/09/23 09:18:26;;;;;;;2.20;1.37;;;;;;;12.66;77.83;99850.28;1586295;88;21136;-36
2022/09/23 09:21:09;;;;;;;1.47;1.20;;;;;;;12.63;77.49;99845.52;1582168;88;21104;-47
2022/09/23 09:23:58;;;;;;;1.95;1.40;;;;;;;12.61;76.55;99848.62;1569018;89;21064;-44
2022/09/23 09:26:32;;;;;;;1.98;1.45;;;;;;;12.60;76.65;99845.58;1583863;89;21116;-36
2022/09/23 09:29:26;;;;;;;1.62;1.52;;;;;;;12.63;76.66;99842.89;1587411;88;21634;-44
2022/09/23 09:32:19;;;;;;;1.47;1.37;;;;;;;12.66;76.47;99848.97;1582362;89;21103;-44
2022/09/23 09:35:08;;;;;;;2.30;1.40;;;;;;;12.62;76.62;99851.66;1554466;89;21106;-37
2022/09/23 09:37:47;;;;;;;2.15;1.92;;;;;;;12.61;76.86;99848.17;1582521;88;21142;-36
2022/09/23 09:40:33;;;;;;;;;;;;;;;12.64;77.83;99845.93;1583145;89;21099;-35
2022/09/23 09:43:06;;;;;;;1.37;1.27;;;;;;;12.70;78.42;99844.11;1586285;89;20146;-35
2022/09/23 09:45:54;;;;;;;1.50;1.40;;;;;;;12.78;78.73;99845.28;1586120;89;21663;-43
2022/09/23 09:49:00;;;;;;;1.37;1.22;;;;;;;12.84;78.32;99846.50;1565148;86;21121;-36
2022/09/23 09:51:34;;;;;;;1.77;1.42;;;;;;;12.87;76.59;99844.25;1621546;85;21651;-37
2022/09/23 09:54:26;;;;;;;1.82;1.37;;;;;;;12.87;76.12;99842.52;1666135;85;21087;-36
2022/09/23 09:56:52;;;;;;;1.72;1.20;;;;;;;12.92;75.33;99838.48;1672650;84;21680;-43
2022/09/23 09:59:27;;;;;;;0.95;0.85;;;;;;;12.91;73.72;99844.63;1650840;84;20986;-44
2022/09/23 10:02:12;;;;;;;0.90;0.88;;;;;;;12.91;72.37;99842.01;1673502;85;21463;-37
2022/09/23 10:04:39;;;;;;;0.90;0.90;;;;;;;12.89;72.16;99842.05;1673199;84;21499;-44
2022/09/23 10:07:14;;;;;;;1.15;1.05;;;;;;;12.87;71.65;99840.31;1667974;84;21678;-36
2022/09/23 10:09:49;;;;;;;3.00;1.20;;;;;;;12.83;72.56;99843.91;1665607;84;21125;-37
2022/09/23 10:12:23;;;;;;;1.40;1.10;;;;;;;12.82;72.29;99842.17;1665816;84;21076;-44
2022/09/23 10:14:55;;;;;;;1.27;0.90;;;;;;;12.79;72.25;99847.87;1664807;84;21384;-36
2022/09/23 10:17:32;;;;;;;1.60;1.10;;;;;;;12.82;73.02;99840.87;1634709;84;21488;-44
2022/09/23 10:20:01;;;;;;;2.35;1.30;;;;;;;12.87;73.16;99845.15;1664045;84;21102;-44
2022/09/23 10:22:35;;;;;;;1.45;1.35;;;;;;;12.89;73.43;99840.73;1666709;84;21703;-44
2022/09/23 10:25:08;;;;;;;1.32;1.22;;;;;;;12.93;73.64;99842.42;1690069;82;21646;-44
2022/09/23 10:27:35;;;;;;;1.20;1.10;;;;;;;12.99;73.65;99842.77;1697584;82;21555;-37
2022/09/23 10:30:16;;;;;;;1.82;1.20;;;;;;;13.03;73.73;99845.73;1701123;82;21029;-44
2022/09/23 10:32:43;;;;;;;2.15;1.30;;;;;;;13.10;74.41;99849.12;1682079;82;21035;-43
2022/09/23 10:35:14;;;;;;;1.40;1.10;;;;;;;13.21;74.81;99845.89;1662560;84;21447;-44
2022/09/23 10:37:53;;;;;;;1.67;1.10;;;;;;;13.27;73.82;99840.08;1657341;84;21018;-45
2022/09/23 10:47:14;;;;;;;1.10;1.00;;;;;;;13.52;74.04;99846.22;1692971;82;21791;-46
2022/09/23 10:49:51;;;;;;;0.80;0.80;;;;;;;13.68;72.39;99837.56;1694005;82;21344;-46
2022/09/23 10:52:55;;;;;;;1.30;1.17;;;;;;;13.76;70.75;99844.41;1694063;82;21017;-46
2022/09/23 10:55:58;;;;;;;1.15;1.05;;;;;;;13.82;69.01;99840.34;1698634;82;21103;-45
2022/09/23 10:58:46;;;;;;;1.45;1.17;;;;;;;13.87;68.43;99839.39;1649786;84;21059;-46
2022/09/23 11:01:39;;;;;;;0.90;0.90;;;;;;;13.89;68.58;99840.22;1650456;85;21065;-38
2022/09/23 11:04:46;;;;;;;2.47;1.17;;;;;;;13.98;69.33;99836.09;1573732;89;21651;-38
2022/09/23 11:07:34;;;;;;;1.87;1.50;;;;;;;13.94;69.55;99841.85;1575384;89;21020;-45
2022/09/23 11:10:37;;;;;;;1.45;1.30;;;;;;;13.81;70.65;99840.38;1574084;89;21144;-36
2022/09/23 11:13:13;;;;;;;;;;;;;;;13.71;71.63;99843.64;1577773;89;21095;-35
2022/09/23 11:16:09;;;;;;;1.30;1.20;;;;;;;13.73;69.71;99835.71;1579310;89;20185;-36
2022/09/23 11:18:48;;;;;;;1.25;0.80;;;;;;;13.73;69.50;99835.26;1562830;89;21038;-36
2022/09/23 11:21:50;;;;;;;2.67;0.50;;;;;;;13.70;68.04;99833.16;1548511;91;21615;-36
2022/09/23 11:24:30;;;;;;;0.80;0.68;;;;;;;13.65;66.42;99831.93;1575018;89;21131;-44
2022/09/23 11:27:08;;;;;;;0.60;0.60;;;;;;;13.67;65.42;99831.89;1580257;89;21347;-36
2022/09/23 11:29:57;;;;;;;0.65;0.65;;;;;;;13.81;65.99;99822.84;1559133;89;21823;-44
2022/09/23 11:32:53;;;;;;;0.70;0.70;;;;;;;14.03;63.27;99817.11;1562641;90;21668;-35
2022/09/23 11:35:34;;;;;;;13.88;5.30;;;;;;;14.20;64.34;99828.58;1567676;90;21125;-36
2022/09/23 11:38:10;;;;;;;1.90;1.20;;;;;;;14.32;63.77;99825.67;1575111;89;21714;-36
2022/09/23 11:40:39;;;;;;;1.07;0.98;;;;;;;14.38;62.07;99822.93;1615087;85;21665;-36
2022/09/23 11:43:24;;;;;;;1.95;0.82;;;;;;;14.31;62.20;99814.73;1652858;86;21049;-36
2022/09/23 11:46:02;;;;;;;1.17;0.90;;;;;;;14.22;62.95;99824.17;1650850;85;21607;-36
2022/09/23 11:48:43;;;;;;;1.27;0.80;;;;;;;14.16;64.06;99821.22;1627498;86;21089;-36
2022/09/23 11:51:17;;;;;;;1.42;1.22;;;;;;;14.15;64.01;99828.70;1653456;85;21100;-36
2022/09/23 11:54:08;;;;;;;1.55;1.42;;;;;;;14.08;65.17;99825.77;1651396;86;21037;-36
2022/09/23 11:56:44;;;;;;;1.47;1.37;;;;;;;13.96;67.29;99833.92;1651227;84;21021;-36
2022/09/23 11:59:46;;;;;;;3.80;1.12;;;;;;;13.79;69.86;99832.50;1640721;84;21547;-44
2022/09/23 12:02:39;;;;;;;1.32;1.22;;;;;;;13.72;70.80;99827.41;1608990;88;21444;-44
2022/09/23 12:05:12;;;;;;;1.47;1.02;;;;;;;13.61;72.35;99832.87;1615591;88;21039;-44
2022/09/23 12:08:06;;;;;;;3.02;1.00;;;;;;;13.55;71.33;99829.92;1595003;89;21031;-44
2022/09/23 12:11:09;;;;;;;0.70;0.70;;;;;;;13.47;70.84;99828.35;1597646;88;21077;-44
2022/09/23 12:14:13;;;;;;;1.00;0.70;;;;;;;13.35;69.24;99821.56;1608438;88;21087;-37
2022/09/23 12:17:07;;;;;;;0.60;0.60;;;;;;;13.27;69.33;99830.02;1655572;85;21002;-37
2022/09/23 13:31:58;;;;;;;0.78;0.78;;;;;;;14.84;64.02;99789.81;1654994;86;21190;-42
2022/09/23 13:34:32;;;;;;;0.70;0.50;;;;;;;14.57;65.76;99794.44;1629393;88;21051;-36
